Time;durP1;ratioP1;P1;durP2;ratioP2;P2;SDS_P1;SDS_P2;PMS_P1;PMS_P2;Temp;Humidity;BMP_temperature;BMP_pressure;BME280_temperature;BME280_humidity;BME280_pressure;Samples;Min_cycle;Max_cycle;Signal;HPM_P1;HPM_P2
2023/06/04 00:00:25;;;;;;;2.20;1.23;;;15.50;79.80;;;;;;5045914;28;20580;-44
2023/06/04 00:02:50;;;;;;;2.88;1.20;;;15.50;80.10;;;;;;5045781;28;20150;-42
2023/06/04 00:05:16;;;;;;;2.17;1.35;;;15.40;80.20;;;;;;5045691;28;20052;-42
2023/06/04 00:07:41;;;;;;;1.33;0.90;;;15.40;80.30;;;;;;5045009;28;20029;-45
2023/06/04 00:10:07;;;;;;;2.10;1.10;;;15.40;80.30;;;;;;5045680;28;20036;-43
2023/06/04 00:12:33;;;;;;;1.50;0.80;;;15.30;80.30;;;;;;5044705;28;20036;-42
2023/06/04 00:14:58;;;;;;;2.35;0.95;;;15.30;80.40;;;;;;5025371;28;20053;-43
2023/06/04 00:17:24;;;;;;;1.60;0.90;;;15.30;80.60;;;;;;5038668;28;20025;-43
2023/06/04 00:19:50;;;;;;;2.38;0.95;;;15.30;80.80;;;;;;5045117;28;20017;-43
2023/06/04 00:22:15;;;;;;;1.92;0.90;;;15.30;80.90;;;;;;5045406;28;20025;-42
2023/06/04 00:24:41;;;;;;;1.90;1.02;;;15.30;81.00;;;;;;5044774;28;20028;-43
2023/06/04 00:27:08;;;;;;;1.17;0.90;;;15.20;80.90;;;;;;5044774;28;20028;-43
2023/06/04 00:29:33;;;;;;;1.65;0.90;;;15.20;81.00;;;;;;5044595;28;20021;-42
2023/06/04 00:31:59;;;;;;;1.13;0.85;;;15.20;81.10;;;;;;5044569;28;20104;-44
2023/06/04 00:34:24;;;;;;;1.58;1.10;;;15.10;81.30;;;;;;5043905;28;20127;-42
2023/06/04 00:36:50;;;;;;;2.13;1.27;;;15.10;81.80;;;;;;5045062;28;20096;-42
2023/06/04 00:39:21;;;;;;;2.15;1.20;;;15.00;81.70;;;;;;5044544;28;20025;-42
2023/06/04 00:41:47;;;;;;;1.75;1.10;;;15.00;81.80;;;;;;5044511;28;20107;-43
2023/06/04 00:44:12;;;;;;;2.00;1.05;;;15.00;81.80;;;;;;5041044;28;20471;-43
2023/06/04 00:46:38;;;;;;;2.38;1.10;;;14.90;81.80;;;;;;5043437;28;20057;-43
2023/06/04 00:49:05;;;;;;;1.77;1.10;;;14.90;81.80;;;;;;5044599;28;20722;-43
2023/06/04 00:51:32;;;;;;;1.02;0.77;;;14.90;81.80;;;;;;5043816;28;20099;-43
2023/06/04 00:53:59;;;;;;;2.92;1.00;;;14.90;81.80;;;;;;5043760;28;20041;-44
2023/06/04 00:56:24;;;;;;;1.85;1.10;;;14.90;81.80;;;;;;5044382;28;20482;-43
2023/06/04 00:58:52;;;;;;;2.33;0.70;;;14.80;81.80;;;;;;5043859;28;20036;-42
2023/06/04 01:01:40;;;;;;;1.17;0.80;;;14.80;81.90;;;;;;5043541;28;20116;-43
2023/06/04 01:04:12;;;;;;;1.83;1.08;;;14.80;82.10;;;;;;5044585;28;20036;-43
2023/06/04 01:06:43;;;;;;;3.42;1.15;;;14.70;82.00;;;;;;5044527;28;20039;-43
2023/06/04 01:09:10;;;;;;;1.08;0.93;;;14.70;82.20;;;;;;5043850;28;20035;-43
2023/06/04 01:11:37;;;;;;;3.10;1.00;;;14.70;82.20;;;;;;5044207;28;20032;-43
2023/06/04 01:14:05;;;;;;;1.30;1.08;;;14.60;82.20;;;;;;5044393;28;20107;-43
2023/06/04 01:16:38;;;;;;;1.27;0.90;;;14.60;82.30;;;;;;5043215;28;20056;-44
2023/06/04 01:19:10;;;;;;;1.30;1.02;;;14.60;82.30;;;;;;5044489;28;20104;-43
2023/06/04 01:21:38;;;;;;;1.27;1.05;;;14.60;82.30;;;;;;5043475;28;20031;-44
2023/06/04 01:24:06;;;;;;;1.80;1.00;;;14.60;82.40;;;;;;5043325;28;20086;-43
2023/06/04 01:26:32;;;;;;;1.35;0.98;;;14.50;82.40;;;;;;5044014;28;20107;-42
2023/06/04 01:29:01;;;;;;;1.20;0.88;;;14.50;82.50;;;;;;5043372;28;20112;-43
2023/06/04 01:31:32;;;;;;;1.20;1.10;;;14.50;82.60;;;;;;5044090;28;20116;-43
2023/06/04 01:33:58;;;;;;;2.45;1.00;;;14.40;82.60;;;;;;5044042;28;20680;-43
2023/06/04 01:36:24;;;;;;;1.70;0.85;;;14.40;82.60;;;;;;5043332;28;20024;-43
2023/06/04 01:38:50;;;;;;;1.30;1.08;;;14.30;82.60;;;;;;5044310;28;20029;-43
2023/06/04 01:41:16;;;;;;;1.17;0.90;;;14.40;82.80;;;;;;5044294;28;20020;-43
2023/06/04 01:43:41;;;;;;;2.58;1.08;;;14.40;82.80;;;;;;5042919;28;20079;-43
2023/06/04 01:46:07;;;;;;;2.53;1.33;;;14.30;82.80;;;;;;5044205;28;20110;-43
2023/06/04 01:48:33;;;;;;;2.25;1.17;;;14.30;82.80;;;;;;5043607;28;20041;-42
2023/06/04 01:50:58;;;;;;;3.83;1.40;;;14.30;82.80;;;;;;5043161;28;20024;-43
2023/06/04 01:53:24;;;;;;;1.20;0.90;;;14.30;82.90;;;;;;5043210;28;20053;-44
2023/06/04 01:55:50;;;;;;;2.05;1.10;;;14.20;82.90;;;;;;5043921;28;20021;-43
2023/06/04 01:58:26;;;;;;;1.48;0.90;;;14.20;83.00;;;;;;5043241;28;20039;-42
2023/06/04 02:00:52;;;;;;;1.33;1.20;;;14.20;83.00;;;;;;5043708;28;20461;-44
2023/06/04 02:03:18;;;;;;;1.85;1.25;;;14.20;83.10;;;;;;5043858;28;20566;-43
2023/06/04 02:05:46;;;;;;;3.22;1.10;;;14.10;83.10;;;;;;5042732;28;20548;-43
2023/06/04 02:08:18;;;;;;;1.40;1.02;;;14.10;83.20;;;;;;5044406;28;20149;-43
2023/06/04 02:10:47;;;;;;;1.40;1.05;;;14.10;83.40;;;;;;5047809;28;20091;-44
2023/06/04 02:13:13;;;;;;;1.83;0.90;;;14.10;83.50;;;;;;5047246;28;20037;-43
2023/06/04 02:15:38;;;;;;;3.42;1.10;;;14.00;83.50;;;;;;5047072;28;20119;-43
2023/06/04 02:18:24;;;;;;;1.67;1.20;;;14.00;83.60;;;;;;5047079;28;20489;-43
2023/06/04 02:20:50;;;;;;;1.38;1.25;;;14.00;84.50;;;;;;5047243;28;20091;-42
2023/06/04 02:23:17;;;;;;;1.85;1.08;;;13.90;83.90;;;;;;5047582;28;20025;-43
2023/06/04 02:25:47;;;;;;;1.75;1.17;;;13.90;83.90;;;;;;5046430;28;20100;-42
2023/06/04 02:28:13;;;;;;;1.00;0.90;;;13.90;83.90;;;;;;5047730;28;20127;-41
2023/06/04 02:30:42;;;;;;;2.03;0.93;;;13.90;83.90;;;;;;5046445;28;20028;-43
2023/06/04 02:33:09;;;;;;;2.80;1.23;;;13.80;83.90;;;;;;5046384;28;20083;-41
2023/06/04 02:35:35;;;;;;;2.13;1.20;;;13.80;84.10;;;;;;5047108;28;20029;-42
2023/06/04 02:38:01;;;;;;;1.45;1.10;;;13.80;84.30;;;;;;5047309;28;20024;-43
2023/06/04 02:40:30;;;;;;;2.35;1.00;;;13.80;84.40;;;;;;5046703;28;20021;-43
2023/06/04 02:42:56;;;;;;;1.83;1.08;;;13.70;84.50;;;;;;5046411;28;20061;-45
2023/06/04 02:45:22;;;;;;;2.08;1.17;;;13.70;84.70;;;;;;5046993;28;20116;-43
2023/06/04 02:47:48;;;;;;;1.20;1.10;;;13.60;84.70;;;;;;5046649;28;20859;-43
2023/06/04 02:50:15;;;;;;;1.10;0.70;;;13.60;84.70;;;;;;5047687;28;20032;-42
2023/06/04 02:52:41;;;;;;;2.13;1.10;;;13.60;84.80;;;;;;5046395;28;20049;-43
2023/06/04 02:55:08;;;;;;;2.22;1.25;;;13.60;85.00;;;;;;5046589;28;20403;-43
2023/06/04 02:57:34;;;;;;;1.52;1.10;;;13.60;85.00;;;;;;5046856;28;20033;-42
2023/06/04 03:00:01;;;;;;;1.38;1.10;;;13.50;85.10;;;;;;5047397;28;20029;-42
2023/06/04 03:02:26;;;;;;;1.85;1.20;;;13.50;85.20;;;;;;5045602;28;20025;-43
2023/06/04 03:04:54;;;;;;;1.45;1.20;;;13.50;85.40;;;;;;5047211;28;20025;-43
2023/06/04 03:07:22;;;;;;;2.03;1.27;;;13.40;85.40;;;;;;5045797;28;20017;-42
2023/06/04 03:09:48;;;;;;;1.27;1.08;;;13.40;85.50;;;;;;5047137;28;20112;-42
2023/06/04 03:12:14;;;;;;;2.03;1.20;;;13.40;85.60;;;;;;5046675;28;20099;-43
2023/06/04 03:14:39;;;;;;;1.88;1.10;;;13.30;85.70;;;;;;5045744;28;20036;-43
2023/06/04 03:17:10;;;;;;;1.83;1.17;;;13.40;85.90;;;;;;5046879;28;20036;-43
2023/06/04 03:19:40;;;;;;;1.50;1.00;;;13.30;86.00;;;;;;5046351;28;20033;-43
2023/06/04 03:22:06;;;;;;;1.17;1.08;;;13.30;86.20;;;;;;5045144;28;20451;-43
2023/06/04 03:24:38;;;;;;;2.72;1.08;;;13.30;86.50;;;;;;5046102;28;20017;-42
2023/06/04 03:27:05;;;;;;;2.95;1.35;;;13.20;86.40;;;;;;5046833;28;20056;-42
2023/06/04 03:29:32;;;;;;;2.00;1.23;;;13.20;86.80;;;;;;5045480;28;20012;-43
2023/06/04 03:32:00;;;;;;;2.38;1.40;;;13.20;86.80;;;;;;5047084;28;20021;-41
2023/06/04 03:34:27;;;;;;;2.58;1.30;;;13.20;86.90;;;;;;5046082;28;20045;-43
2023/06/04 03:36:55;;;;;;;2.63;1.33;;;13.20;87.00;;;;;;5046137;28;20472;-43
2023/06/04 03:39:22;;;;;;;1.98;1.20;;;13.20;87.10;;;;;;5046596;28;20037;-42
2023/06/04 03:41:48;;;;;;;2.20;1.30;;;13.20;87.20;;;;;;5046721;28;20492;-43
2023/06/04 03:44:14;;;;;;;1.70;1.25;;;13.20;87.50;;;;;;5045859;28;20128;-43
2023/06/04 03:46:41;;;;;;;1.95;1.30;;;13.20;87.50;;;;;;5046419;28;20044;-42
2023/06/04 03:49:06;;;;;;;2.42;1.40;;;13.20;87.70;;;;;;5046564;28;20017;-43
2023/06/04 03:51:32;;;;;;;3.03;1.23;;;13.10;88.40;;;;;;5045329;28;20812;-42
2023/06/04 03:53:58;;;;;;;1.90;1.35;;;13.10;87.90;;;;;;5045885;28;20049;-43
2023/06/04 03:56:26;;;;;;;1.50;1.40;;;13.10;87.90;;;;;;5045448;28;20468;-43
2023/06/04 03:58:52;;;;;;;1.80;1.17;;;13.10;88.10;;;;;;5045682;28;20484;-43
2023/06/04 04:01:18;;;;;;;2.92;1.42;;;13.10;88.20;;;;;;5045552;28;20438;-43
2023/06/04 04:03:48;;;;;;;2.60;1.30;;;13.10;88.50;;;;;;5045174;28;20025;-44
2023/06/04 04:06:13;;;;;;;3.90;1.20;;;13.10;88.50;;;;;;5045253;28;20028;-44
2023/06/04 04:08:42;;;;;;;1.55;1.30;;;13.10;88.70;;;;;;5045085;28;20033;-43
2023/06/04 04:11:08;;;;;;;3.92;1.40;;;13.10;88.90;;;;;;5044569;28;20028;-43
2023/06/04 04:13:33;;;;;;;3.10;1.58;;;13.00;89.10;;;;;;5045268;28;20052;-43
2023/06/04 04:15:59;;;;;;;1.63;1.20;;;13.00;89.40;;;;;;5045364;28;20021;-42
2023/06/04 04:18:25;;;;;;;2.25;1.33;;;13.00;89.50;;;;;;5044627;28;20025;-43
2023/06/04 04:20:55;;;;;;;1.42;1.33;;;13.00;89.70;;;;;;5045277;28;20020;-42
2023/06/04 04:23:21;;;;;;;2.45;1.35;;;12.90;89.80;;;;;;5025135;28;20520;-43
2023/06/04 04:25:48;;;;;;;2.63;1.40;;;12.90;90.00;;;;;;5039120;28;20025;-44
2023/06/04 04:28:14;;;;;;;1.85;1.40;;;12.90;90.10;;;;;;5045254;28;20036;-44
2023/06/04 04:30:44;;;;;;;1.40;1.30;;;12.90;90.20;;;;;;5044868;28;20021;-44
2023/06/04 04:33:10;;;;;;;1.92;1.50;;;12.90;90.30;;;;;;5043556;28;20028;-42
2023/06/04 04:35:36;;;;;;;2.65;1.40;;;12.80;90.30;;;;;;5044775;28;20115;-41
2023/06/04 04:38:03;;;;;;;5.45;1.30;;;12.90;90.30;;;;;;5045244;28;20112;-43
2023/06/04 04:40:29;;;;;;;2.63;1.45;;;12.90;90.50;;;;;;5043504;28;20495;-43
2023/06/04 04:42:55;;;;;;;1.60;1.30;;;12.90;90.50;;;;;;5044876;28;20048;-43
2023/06/04 04:45:20;;;;;;;1.23;1.00;;;12.90;90.60;;;;;;5044807;28;20055;-43
2023/06/04 04:47:46;;;;;;;2.28;1.48;;;12.90;90.60;;;;;;5043889;28;20103;-42
2023/06/04 04:50:12;;;;;;;2.10;1.35;;;13.00;91.00;;;;;;5044408;28;20103;-43
2023/06/04 04:52:38;;;;;;;2.55;1.42;;;12.90;90.70;;;;;;5043815;28;20063;-42
2023/06/04 04:55:04;;;;;;;2.10;1.20;;;13.00;90.90;;;;;;5044137;28;20074;-42
2023/06/04 04:57:30;;;;;;;1.50;1.30;;;13.00;90.90;;;;;;5043504;28;20026;-44
2023/06/04 04:59:58;;;;;;;2.60;1.48;;;13.00;91.00;;;;;;5044141;28;20017;-43
2023/06/04 05:02:24;;;;;;;1.83;1.35;;;13.00;91.00;;;;;;5043636;28;20039;-42
2023/06/04 05:04:50;;;;;;;1.95;1.38;;;13.10;91.10;;;;;;5044839;28;20473;-43
2023/06/04 05:07:15;;;;;;;2.45;1.65;;;13.10;91.20;;;;;;5043249;28;20407;-43
2023/06/04 05:09:41;;;;;;;2.92;1.35;;;13.10;91.30;;;;;;5043908;28;20385;-42
2023/06/04 05:12:06;;;;;;;3.28;1.38;;;13.10;91.30;;;;;;5044357;28;20530;-43
2023/06/04 05:14:35;;;;;;;3.85;1.88;;;13.20;91.40;;;;;;5043189;28;20040;-43
2023/06/04 05:17:04;;;;;;;2.22;1.30;;;13.20;91.40;;;;;;5044136;28;20044;-43
2023/06/04 05:19:32;;;;;;;3.00;1.33;;;13.20;91.40;;;;;;5043575;28;20112;-43
2023/06/04 05:21:59;;;;;;;2.40;1.40;;;13.20;91.50;;;;;;5043560;28;20163;-42
2023/06/04 05:24:25;;;;;;;2.30;1.50;;;13.30;91.50;;;;;;5043674;28;20048;-44
2023/06/04 05:26:50;;;;;;;2.00;1.50;;;13.30;91.50;;;;;;5043458;28;20029;-43
2023/06/04 05:29:16;;;;;;;2.38;1.50;;;13.40;91.60;;;;;;5043352;28;20058;-42
2023/06/04 05:31:42;;;;;;;3.35;1.17;;;13.40;91.70;;;;;;5044132;28;20411;-44
2023/06/04 05:34:08;;;;;;;2.83;1.40;;;13.50;91.70;;;;;;5043902;28;20040;-43
2023/06/04 05:36:34;;;;;;;5.13;1.67;;;13.50;91.80;;;;;;5042786;28;20548;-43
2023/06/04 05:38:59;;;;;;;3.17;1.80;;;13.50;91.90;;;;;;5043839;28;20013;-43
2023/06/04 05:41:28;;;;;;;3.55;1.95;;;13.60;91.90;;;;;;5043223;28;20028;-43
2023/06/04 05:43:54;;;;;;;5.18;1.42;;;13.60;91.90;;;;;;5043051;28;20484;-43
2023/06/04 05:46:21;;;;;;;1.35;1.23;;;13.70;92.00;;;;;;5043748;28;20074;-42
2023/06/04 05:48:56;;;;;;;2.13;1.20;;;13.70;92.00;;;;;;5043805;28;20109;-42
2023/06/04 05:51:39;;;;;;;1.75;1.10;;;13.70;92.00;;;;;;5023858;28;20052;-43
2023/06/04 05:54:08;;;;;;;2.03;1.40;;;13.80;92.20;;;;;;5041628;28;20420;-43
2023/06/04 05:56:34;;;;;;;1.85;1.50;;;13.90;92.00;;;;;;5043045;28;20033;-42
2023/06/04 05:59:00;;;;;;;1.33;1.17;;;13.90;92.00;;;;;;5044106;28;20025;-43
2023/06/04 06:01:25;;;;;;;1.40;1.30;;;14.00;92.00;;;;;;5043532;28;20024;-43
2023/06/04 06:03:51;;;;;;;2.28;1.50;;;14.00;92.00;;;;;;5042984;28;20033;-43
2023/06/04 06:06:18;;;;;;;2.63;1.30;;;14.00;92.10;;;;;;5043952;28;20021;-43
2023/06/04 06:08:46;;;;;;;3.72;1.38;;;14.10;92.10;;;;;;5043418;28;20021;-42
2023/06/04 06:11:12;;;;;;;3.33;1.60;;;14.10;92.10;;;;;;5042921;28;20029;-43
2023/06/04 06:13:37;;;;;;;2.70;1.33;;;14.20;92.10;;;;;;5042832;28;20040;-43
2023/06/04 06:16:04;;;;;;;2.85;1.55;;;14.20;92.10;;;;;;5044098;28;20369;-43
2023/06/04 06:18:30;;;;;;;3.95;1.40;;;14.20;92.10;;;;;;5042147;28;20021;-43
2023/06/04 06:20:55;;;;;;;2.63;1.20;;;14.30;92.20;;;;;;5043856;28;20036;-42
2023/06/04 06:23:22;;;;;;;2.22;1.40;;;14.40;92.20;;;;;;5042816;28;20033;-43
2023/06/04 06:25:48;;;;;;;3.05;1.30;;;14.40;92.20;;;;;;5043128;28;20032;-43
2023/06/04 06:28:15;;;;;;;2.60;1.58;;;14.50;92.20;;;;;;5043203;28;20053;-41
2023/06/04 06:30:40;;;;;;;1.77;1.30;;;14.50;92.20;;;;;;5042845;28;20592;-43
2023/06/04 06:33:06;;;;;;;1.67;1.40;;;14.60;92.20;;;;;;5042988;28;20041;-44
2023/06/04 06:35:31;;;;;;;1.83;1.23;;;14.60;92.20;;;;;;5042719;28;20029;-43
2023/06/04 06:37:57;;;;;;;1.65;1.15;;;14.70;92.10;;;;;;5043758;28;20599;-42
2023/06/04 06:40:23;;;;;;;1.73;1.20;;;14.80;92.10;;;;;;5042214;28;20017;-42
2023/06/04 06:42:50;;;;;;;2.97;1.52;;;14.80;92.00;;;;;;5043515;28;20652;-43
2023/06/04 06:45:16;;;;;;;1.50;1.40;;;14.80;92.00;;;;;;5042669;28;20029;-42
2023/06/04 06:47:49;;;;;;;2.08;1.15;;;14.90;92.00;;;;;;5042862;28;20765;-43
2023/06/04 06:50:15;;;;;;;1.73;1.27;;;14.90;92.00;;;;;;5043566;28;20135;-43
2023/06/04 06:52:41;;;;;;;2.78;1.17;;;15.00;91.90;;;;;;5041809;28;20068;-44
2023/06/04 06:55:07;;;;;;;3.63;1.10;;;15.00;91.90;;;;;;5043123;28;20131;-43
2023/06/04 06:57:33;;;;;;;1.52;1.08;;;15.10;92.10;;;;;;5046140;28;20090;-43
2023/06/04 06:59:59;;;;;;;2.25;1.15;;;15.10;91.80;;;;;;5046002;28;20049;-44
2023/06/04 07:02:25;;;;;;;1.80;1.30;;;15.20;91.80;;;;;;5046143;28;20025;-42
2023/06/04 07:04:50;;;;;;;1.20;1.10;;;15.30;91.70;;;;;;5047464;28;20594;-43
2023/06/04 07:07:16;;;;;;;2.85;1.00;;;15.30;91.50;;;;;;5046024;28;20381;-43
2023/06/04 07:09:51;;;;;;;1.17;1.00;;;15.40;91.40;;;;;;5046129;28;20040;-43
2023/06/04 07:12:23;;;;;;;2.20;1.00;;;15.50;91.40;;;;;;5043141;28;20464;-43
2023/06/04 07:14:48;;;;;;;2.15;1.25;;;15.60;91.30;;;;;;5045753;28;20048;-43
2023/06/04 07:17:17;;;;;;;2.17;1.23;;;15.60;91.10;;;;;;5046555;28;20381;-43
2023/06/04 07:19:42;;;;;;;1.35;1.00;;;15.70;91.00;;;;;;5046616;28;20052;-42
2023/06/04 07:22:08;;;;;;;4.72;1.35;;;15.80;90.90;;;;;;5045877;28;20881;-43
2023/06/04 07:24:33;;;;;;;1.40;0.93;;;15.80;90.70;;;;;;5045667;28;20532;-43
2023/06/04 07:26:59;;;;;;;1.55;1.00;;;15.90;90.70;;;;;;5046419;28;20021;-44
2023/06/04 07:29:24;;;;;;;2.92;1.10;;;15.90;90.70;;;;;;5044949;28;20819;-43
2023/06/04 07:31:50;;;;;;;1.90;1.30;;;16.00;90.70;;;;;;5046875;28;20027;-43
2023/06/04 07:34:15;;;;;;;1.52;1.10;;;16.00;90.60;;;;;;5046564;28;20477;-43
2023/06/04 07:36:41;;;;;;;2.10;1.30;;;16.10;90.60;;;;;;5045353;28;20090;-41
2023/06/04 07:39:07;;;;;;;2.20;1.13;;;16.10;90.50;;;;;;5046577;28;20546;-44
2023/06/04 07:41:32;;;;;;;1.48;1.20;;;16.20;90.50;;;;;;5045195;28;20017;-43
2023/06/04 07:43:58;;;;;;;1.80;1.10;;;16.20;90.40;;;;;;5046518;28;20048;-43
2023/06/04 07:46:23;;;;;;;0.80;0.80;;;16.30;90.40;;;;;;5044913;28;20013;-43
2023/06/04 07:48:49;;;;;;;1.40;0.65;;;16.30;90.30;;;;;;5045667;28;20555;-44
2023/06/04 07:51:15;;;;;;;1.67;1.15;;;16.40;90.30;;;;;;5045692;28;20021;-43
2023/06/04 07:53:42;;;;;;;1.98;0.95;;;16.40;90.30;;;;;;5044698;28;20079;-43
2023/06/04 07:56:07;;;;;;;2.15;0.85;;;16.40;90.10;;;;;;5045300;28;20490;-43
2023/06/04 07:58:33;;;;;;;1.83;0.98;;;16.50;90.10;;;;;;5045218;28;20029;-43
2023/06/04 08:00:59;;;;;;;2.65;1.15;;;16.60;89.90;;;;;;5046296;28;20484;-43
2023/06/04 08:03:24;;;;;;;2.67;1.20;;;16.60;89.60;;;;;;5044542;28;20021;-42
2023/06/04 08:05:50;;;;;;;1.63;0.90;;;16.70;89.40;;;;;;5046159;28;20017;-43
2023/06/04 08:08:16;;;;;;;1.35;0.90;;;16.70;89.20;;;;;;5045355;28;20033;-43
2023/06/04 08:10:42;;;;;;;1.50;0.85;;;16.80;89.20;;;;;;5044517;28;20107;-43
2023/06/04 08:13:08;;;;;;;1.40;1.05;;;16.80;88.40;;;;;;5045714;28;20320;-43
2023/06/04 08:15:34;;;;;;;2.15;1.30;;;16.90;87.80;;;;;;5045183;28;20029;-42
2023/06/04 08:17:59;;;;;;;1.05;0.90;;;17.00;87.50;;;;;;5045233;28;20028;-44
2023/06/04 08:20:25;;;;;;;1.02;0.93;;;17.10;87.40;;;;;;5044911;28;20108;-42
2023/06/04 08:22:51;;;;;;;1.92;0.93;;;17.20;87.30;;;;;;5045869;28;20021;-43
2023/06/04 08:25:19;;;;;;;1.58;0.82;;;17.30;87.20;;;;;;5044940;28;20670;-43
2023/06/04 08:27:44;;;;;;;3.05;1.10;;;17.30;87.10;;;;;;5045370;28;20025;-43
2023/06/04 08:30:10;;;;;;;3.25;1.10;;;17.40;86.60;;;;;;5045046;28;20041;-43
2023/06/04 08:32:36;;;;;;;1.63;1.05;;;17.50;85.70;;;;;;5043927;28;20025;-43
2023/06/04 08:35:01;;;;;;;1.83;0.90;;;17.50;85.40;;;;;;5044974;28;20040;-43
2023/06/04 08:37:27;;;;;;;0.75;0.75;;;17.60;85.40;;;;;;5044319;28;20120;-43
2023/06/04 08:39:52;;;;;;;2.55;0.80;;;17.60;85.10;;;;;;5044115;28;20029;-43
2023/06/04 08:42:27;;;;;;;1.50;1.08;;;17.70;84.60;;;;;;5045098;28;20021;-42
2023/06/04 08:44:53;;;;;;;1.55;0.90;;;17.80;84.20;;;;;;5044106;28;20049;-42
2023/06/04 08:47:20;;;;;;;2.00;1.08;;;17.80;83.80;;;;;;5044831;28;20029;-42
2023/06/04 08:49:50;;;;;;;1.95;1.15;;;17.90;82.90;;;;;;5044083;28;20033;-44
2023/06/04 08:52:16;;;;;;;4.47;1.10;;;18.00;82.90;;;;;;5023998;28;20055;-42
2023/06/04 08:54:41;;;;;;;1.88;1.10;;;18.00;82.50;;;;;;5037811;28;20040;-43
2023/06/04 08:57:08;;;;;;;3.22;1.25;;;18.00;82.20;;;;;;5044714;28;20130;-41
2023/06/04 08:59:34;;;;;;;1.00;0.70;;;18.10;81.90;;;;;;5043267;28;20078;-44
2023/06/04 09:02:00;;;;;;;2.15;0.77;;;18.10;81.50;;;;;;5044918;28;20029;-43
2023/06/04 09:04:25;;;;;;;1.45;0.90;;;18.20;81.50;;;;;;5044125;28;20016;-43
2023/06/04 09:06:53;;;;;;;1.67;0.90;;;18.20;81.00;;;;;;5044698;28;20032;-44
2023/06/04 09:09:19;;;;;;;1.55;0.88;;;18.20;80.40;;;;;;5044229;28;20028;-43
2023/06/04 09:11:53;;;;;;;1.90;0.90;;;18.30;80.30;;;;;;5044381;28;20035;-43
2023/06/04 09:14:20;;;;;;;1.67;0.88;;;18.30;79.90;;;;;;5043379;28;20490;-41
2023/06/04 09:16:47;;;;;;;1.20;0.80;;;18.40;79.40;;;;;;5044411;28;20025;-43
2023/06/04 09:19:13;;;;;;;0.82;0.68;;;18.40;79.10;;;;;;5043543;28;20089;-44
2023/06/04 09:21:58;;;;;;;1.58;0.68;;;18.50;79.30;;;;;;5042974;28;20469;-43
2023/06/04 09:24:38;;;;;;;1.35;0.88;;;18.50;79.20;;;;;;5043663;28;20021;-43
2023/06/04 09:27:13;;;;;;;0.80;0.70;;;18.60;79.30;;;;;;5043657;28;20141;-43
2023/06/04 09:29:40;;;;;;;1.70;1.05;;;18.60;79.00;;;;;;5043116;28;20017;-43
2023/06/04 09:32:08;;;;;;;1.05;0.90;;;18.60;78.50;;;;;;5044212;28;20499;-43
2023/06/04 09:34:33;;;;;;;0.75;0.75;;;18.60;77.80;;;;;;5042697;28;20090;-42
2023/06/04 09:36:59;;;;;;;1.10;0.82;;;18.70;77.30;;;;;;5044226;28;20032;-43
2023/06/04 09:39:25;;;;;;;2.63;0.88;;;18.70;76.40;;;;;;5043400;28;20437;-44
2023/06/04 09:42:02;;;;;;;1.25;0.90;;;18.80;75.90;;;;;;5044224;28;20083;-42
2023/06/04 09:44:29;;;;;;;1.30;0.80;;;18.90;75.30;;;;;;5043886;28;20051;-43
2023/06/04 09:46:56;;;;;;;1.08;0.70;;;19.00;75.00;;;;;;5043818;28;20032;-44
2023/06/04 09:49:21;;;;;;;1.35;0.80;;;19.10;74.70;;;;;;5043299;28;20032;-43
2023/06/04 09:51:50;;;;;;;0.80;0.70;;;19.10;74.70;;;;;;5043259;28;20052;-44
2023/06/04 09:54:16;;;;;;;0.98;0.70;;;19.20;74.90;;;;;;5044019;28;20033;-43
2023/06/04 09:56:42;;;;;;;1.85;0.80;;;19.20;75.50;;;;;;5043159;28;20813;-43
2023/06/04 09:59:13;;;;;;;2.33;1.13;;;19.30;74.80;;;;;;5044104;28;20468;-44
2023/06/04 10:01:41;;;;;;;1.27;0.90;;;19.30;73.50;;;;;;5042808;28;20040;-43
2023/06/04 10:04:08;;;;;;;0.95;0.85;;;19.30;73.70;;;;;;5043736;28;20032;-44
2023/06/04 10:06:35;;;;;;;1.52;0.82;;;19.30;74.00;;;;;;5043042;28;20048;-43
2023/06/04 10:09:05;;;;;;;1.23;0.75;;;19.40;73.60;;;;;;5044008;28;20068;-43
2023/06/04 10:11:34;;;;;;;2.22;0.98;;;19.50;72.30;;;;;;5042644;28;20497;-43
2023/06/04 10:14:25;;;;;;;0.95;0.85;;;19.60;71.70;;;;;;5043635;28;20087;-44
2023/06/04 10:16:56;;;;;;;2.67;1.05;;;19.70;71.70;;;;;;5042898;28;20132;-44
2023/06/04 10:19:23;;;;;;;1.33;0.80;;;19.80;71.60;;;;;;5042974;28;20095;-42
2023/06/04 10:21:49;;;;;;;1.00;0.90;;;19.80;71.70;;;;;;5043660;28;20035;-44
2023/06/04 10:24:15;;;;;;;1.23;0.70;;;19.80;71.90;;;;;;5042762;28;20025;-42
2023/06/04 10:26:42;;;;;;;0.65;0.60;;;19.90;71.90;;;;;;5042602;28;20108;-44
2023/06/04 10:29:08;;;;;;;1.15;0.70;;;19.90;72.00;;;;;;5043958;28;20032;-43
2023/06/04 10:31:38;;;;;;;1.20;0.80;;;19.90;72.00;;;;;;5045605;28;20110;-43
2023/06/04 10:34:03;;;;;;;0.60;0.60;;;20.00;72.20;;;;;;5047473;28;20029;-42
2023/06/04 10:36:30;;;;;;;1.08;0.70;;;20.00;72.20;;;;;;5047252;28;20431;-43
2023/06/04 10:38:55;;;;;;;1.17;0.90;;;20.10;72.30;;;;;;5046094;28;20031;-43
2023/06/04 10:41:23;;;;;;;1.35;0.88;;;20.20;72.00;;;;;;5047316;28;20017;-43
2023/06/04 10:43:50;;;;;;;2.33;0.95;;;20.20;72.00;;;;;;5047438;28;20029;-44
2023/06/04 10:46:17;;;;;;;1.77;0.50;;;20.30;71.70;;;;;;5046475;28;20029;-43
2023/06/04 10:48:50;;;;;;;1.00;0.70;;;20.30;71.90;;;;;;5046393;28;20384;-43
2023/06/04 10:51:28;;;;;;;1.13;0.70;;;20.30;72.20;;;;;;5027621;28;20025;-43
2023/06/04 10:53:53;;;;;;;0.80;0.80;;;20.30;72.30;;;;;;5042339;28;20404;-44
2023/06/04 10:56:31;;;;;;;1.30;0.80;;;20.30;72.40;;;;;;5046722;28;20036;-42
2023/06/04 10:59:01;;;;;;;1.02;0.80;;;20.40;72.30;;;;;;5046740;28;20127;-42
2023/06/04 11:01:31;;;;;;;1.55;1.00;;;20.40;71.80;;;;;;5046469;28;20022;-43
2023/06/04 11:03:57;;;;;;;1.38;0.90;;;20.40;70.50;;;;;;5047134;28;20056;-43
2023/06/04 11:06:27;;;;;;;1.80;0.98;;;20.50;70.20;;;;;;5045794;28;20101;-44
2023/06/04 11:09:05;;;;;;;2.30;1.17;;;20.50;70.10;;;;;;5046731;28;20056;-43
2023/06/04 11:11:32;;;;;;;2.33;1.30;;;20.50;68.90;;;;;;5046139;28;20032;-43
2023/06/04 11:14:08;;;;;;;0.88;0.80;;;20.50;69.20;;;;;;5046226;28;20033;-43
2023/06/04 11:16:37;;;;;;;2.70;0.95;;;20.60;69.60;;;;;;5045729;28;20370;-45
2023/06/04 11:19:02;;;;;;;1.42;0.90;;;20.60;69.80;;;;;;5046515;28;20035;-42
2023/06/04 11:21:29;;;;;;;1.17;1.00;;;20.60;69.90;;;;;;5045555;28;20037;-42
2023/06/04 11:23:59;;;;;;;1.35;0.80;;;20.60;69.80;;;;;;5046471;28;20031;-43
2023/06/04 11:26:35;;;;;;;1.20;0.80;;;20.60;69.80;;;;;;5046502;28;20021;-44
2023/06/04 11:29:06;;;;;;;1.05;0.80;;;20.60;70.00;;;;;;5047004;28;20104;-43
2023/06/04 11:31:45;;;;;;;2.05;0.80;;;20.60;70.00;;;;;;5046351;28;20037;-43
2023/06/04 11:34:13;;;;;;;0.95;0.77;;;20.60;69.40;;;;;;5045806;28;20025;-43
2023/06/04 11:36:39;;;;;;;4.78;1.30;;;20.70;69.40;;;;;;5045831;28;20021;-43
2023/06/04 11:39:08;;;;;;;0.85;0.85;;;20.80;69.10;;;;;;5046520;28;20028;-43
2023/06/04 11:41:35;;;;;;;1.10;0.75;;;20.90;68.70;;;;;;5043972;28;20048;-44
2023/06/04 11:44:06;;;;;;;1.08;0.88;;;20.90;68.30;;;;;;5046025;28;20017;-43
2023/06/04 11:46:39;;;;;;;1.10;0.82;;;20.90;68.30;;;;;;5045600;28;20025;-43
2023/06/04 11:49:05;;;;;;;0.77;0.70;;;21.00;69.10;;;;;;5045241;28;20108;-43
2023/06/04 11:51:31;;;;;;;0.60;0.60;;;21.00;68.60;;;;;;5044982;28;20111;-44
2023/06/04 11:53:57;;;;;;;0.70;0.70;;;21.00;68.50;;;;;;5045632;28;20111;-43
2023/06/04 11:56:25;;;;;;;2.97;1.25;;;21.10;68.70;;;;;;5044293;28;20834;-43
2023/06/04 11:58:51;;;;;;;2.72;0.88;;;21.20;68.40;;;;;;5045743;28;20526;-43
2023/06/04 12:01:17;;;;;;;1.85;0.90;;;21.20;68.20;;;;;;5045562;28;20491;-42
2023/06/04 12:03:43;;;;;;;2.25;0.90;;;21.20;67.80;;;;;;5044808;28;20029;-43
2023/06/04 12:06:18;;;;;;;1.02;0.73;;;21.20;68.00;;;;;;5045326;28;20549;-43
2023/06/04 12:08:52;;;;;;;1.45;0.90;;;21.30;67.90;;;;;;5045084;28;20040;-43
2023/06/04 12:11:31;;;;;;;1.02;0.90;;;21.30;67.40;;;;;;5045424;28;20032;-44
2023/06/04 12:13:58;;;;;;;0.80;0.80;;;21.30;67.10;;;;;;5046048;28;20037;-44
2023/06/04 12:16:23;;;;;;;1.05;0.95;;;21.40;67.40;;;;;;5044381;28;20056;-43
2023/06/04 12:18:50;;;;;;;0.80;0.80;;;21.40;67.20;;;;;;5045953;28;20086;-43
2023/06/04 12:21:26;;;;;;;1.13;1.02;;;21.40;67.20;;;;;;5045722;28;20029;-43
2023/06/04 12:23:54;;;;;;;1.45;1.00;;;21.40;66.80;;;;;;5045214;28;20032;-43
2023/06/04 12:26:28;;;;;;;1.08;0.90;;;21.50;66.70;;;;;;5045735;28;20079;-43
2023/06/04 12:29:11;;;;;;;2.65;1.00;;;21.50;66.50;;;;;;5045905;28;20029;-42
2023/06/04 12:31:38;;;;;;;1.40;0.93;;;21.50;66.70;;;;;;5044403;28;20028;-44
2023/06/04 12:34:03;;;;;;;0.98;0.90;;;21.50;66.90;;;;;;5045836;28;20044;-43
2023/06/04 12:36:29;;;;;;;1.10;0.90;;;21.50;67.10;;;;;;5044581;28;20021;-43
2023/06/04 12:39:02;;;;;;;2.72;1.00;;;21.60;67.10;;;;;;5044853;28;20441;-45
2023/06/04 12:41:28;;;;;;;1.02;0.93;;;21.60;66.70;;;;;;5044492;28;20025;-42
2023/06/04 12:43:54;;;;;;;1.60;1.10;;;21.60;66.60;;;;;;5044837;28;20032;-43
2023/06/04 12:46:20;;;;;;;2.50;1.13;;;21.70;66.50;;;;;;5044477;28;20040;-42
2023/06/04 12:48:46;;;;;;;0.80;0.75;;;21.80;66.00;;;;;;5045389;28;20032;-43